sensor_id;sensor_type;location;lat;lon;timestamp;P1;durP1;ratioP1;P2;durP2;ratioP2
32760;SDS011;19126;47.472;7.850;2023-12-20T00:00:34;19.23;;;11.60;;
32760;SDS011;19126;47.472;7.850;2023-12-20T00:03:03;18.60;;;11.23;;
32760;SDS011;19126;47.472;7.850;2023-12-20T00:05:30;18.75;;;10.95;;
32760;SDS011;19126;47.472;7.850;2023-12-20T00:07:58;20.10;;;11.43;;
32760;SDS011;19126;47.472;7.850;2023-12-20T00:10:25;19.73;;;11.57;;
32760;SDS011;19126;47.472;7.850;2023-12-20T00:12:54;20.02;;;12.77;;
32760;SDS011;19126;47.472;7.850;2023-12-20T00:15:21;19.20;;;11.32;;
32760;SDS011;19126;47.472;7.850;2023-12-20T00:17:48;17.38;;;11.15;;
32760;SDS011;19126;47.472;7.850;2023-12-20T00:20:15;15.23;;;9.90;;
32760;SDS011;19126;47.472;7.850;2023-12-20T00:22:43;16.20;;;10.27;;
32760;SDS011;19126;47.472;7.850;2023-12-20T00:25:10;18.85;;;10.07;;
32760;SDS011;19126;47.472;7.850;2023-12-20T00:27:37;19.02;;;10.02;;
32760;SDS011;19126;47.472;7.850;2023-12-20T00:30:07;16.38;;;9.52;;
32760;SDS011;19126;47.472;7.850;2023-12-20T00:32:36;15.57;;;9.87;;
32760;SDS011;19126;47.472;7.850;2023-12-20T00:35:04;15.73;;;9.68;;
32760;SDS011;19126;47.472;7.850;2023-12-20T00:37:32;15.57;;;9.88;;
32760;SDS011;19126;47.472;7.850;2023-12-20T00:39:59;14.48;;;8.77;;
32760;SDS011;19126;47.472;7.850;2023-12-20T00:42:26;19.58;;;10.45;;
32760;SDS011;19126;47.472;7.850;2023-12-20T00:44:53;21.73;;;11.43;;
32760;SDS011;19126;47.472;7.850;2023-12-20T00:47:22;19.65;;;10.00;;
32760;SDS011;19126;47.472;7.850;2023-12-20T00:49:49;16.92;;;9.80;;
32760;SDS011;19126;47.472;7.850;2023-12-20T00:52:17;16.67;;;9.32;;
32760;SDS011;19126;47.472;7.850;2023-12-20T00:54:47;14.93;;;9.15;;
32760;SDS011;19126;47.472;7.850;2023-12-20T00:57:14;13.52;;;8.25;;
32760;SDS011;19126;47.472;7.850;2023-12-20T00:59:41;16.92;;;8.10;;
32760;SDS011;19126;47.472;7.850;2023-12-20T01:02:09;12.25;;;7.53;;
32760;SDS011;19126;47.472;7.850;2023-12-20T01:04:37;15.70;;;8.27;;
32760;SDS011;19126;47.472;7.850;2023-12-20T01:07:04;14.70;;;8.63;;
32760;SDS011;19126;47.472;7.850;2023-12-20T01:09:32;16.88;;;9.75;;
32760;SDS011;19126;47.472;7.850;2023-12-20T01:11:59;21.13;;;10.23;;
32760;SDS011;19126;47.472;7.850;2023-12-20T01:14:26;17.48;;;10.00;;
32760;SDS011;19126;47.472;7.850;2023-12-20T01:16:55;15.05;;;9.07;;
32760;SDS011;19126;47.472;7.850;2023-12-20T01:19:22;16.77;;;9.50;;
32760;SDS011;19126;47.472;7.850;2023-12-20T01:21:53;22.58;;;10.75;;
32760;SDS011;19126;47.472;7.850;2023-12-20T01:24:21;15.23;;;9.32;;
32760;SDS011;19126;47.472;7.850;2023-12-20T01:26:48;18.02;;;9.57;;
32760;SDS011;19126;47.472;7.850;2023-12-20T01:29:15;13.68;;;8.68;;
32760;SDS011;19126;47.472;7.850;2023-12-20T01:31:43;13.10;;;8.15;;
32760;SDS011;19126;47.472;7.850;2023-12-20T01:34:10;16.27;;;8.60;;
32760;SDS011;19126;47.472;7.850;2023-12-20T01:36:37;15.32;;;8.57;;
32760;SDS011;19126;47.472;7.850;2023-12-20T01:39:07;16.38;;;8.43;;
32760;SDS011;19126;47.472;7.850;2023-12-20T01:41:34;17.02;;;9.07;;
32760;SDS011;19126;47.472;7.850;2023-12-20T01:44:01;19.63;;;9.05;;
32760;SDS011;19126;47.472;7.850;2023-12-20T01:46:29;18.90;;;9.70;;
32760;SDS011;19126;47.472;7.850;2023-12-20T01:48:57;19.75;;;9.57;;
32760;SDS011;19126;47.472;7.850;2023-12-20T01:51:24;17.02;;;8.40;;
32760;SDS011;19126;47.472;7.850;2023-12-20T01:53:53;22.63;;;9.57;;
32760;SDS011;19126;47.472;7.850;2023-12-20T01:56:23;14.02;;;8.27;;
32760;SDS011;19126;47.472;7.850;2023-12-20T01:58:50;13.40;;;7.97;;
32760;SDS011;19126;47.472;7.850;2023-12-20T02:01:17;15.52;;;8.40;;
32760;SDS011;19126;47.472;7.850;2023-12-20T02:03:45;15.38;;;7.80;;
32760;SDS011;19126;47.472;7.850;2023-12-20T02:06:13;16.35;;;8.35;;
32760;SDS011;19126;47.472;7.850;2023-12-20T02:08:41;12.10;;;7.97;;
32760;SDS011;19126;47.472;7.850;2023-12-20T02:11:08;14.25;;;7.38;;
32760;SDS011;19126;47.472;7.850;2023-12-20T02:13:38;12.65;;;7.43;;
32760;SDS011;19126;47.472;7.850;2023-12-20T02:16:05;14.35;;;8.48;;
32760;SDS011;19126;47.472;7.850;2023-12-20T02:18:33;13.07;;;7.90;;
32760;SDS011;19126;47.472;7.850;2023-12-20T02:21:00;12.52;;;8.75;;
32760;SDS011;19126;47.472;7.850;2023-12-20T02:23:31;14.88;;;8.90;;
32760;SDS011;19126;47.472;7.850;2023-12-20T02:25:58;17.48;;;8.32;;
32760;SDS011;19126;47.472;7.850;2023-12-20T02:28:26;15.38;;;8.23;;
32760;SDS011;19126;47.472;7.850;2023-12-20T02:30:53;16.58;;;9.27;;
32760;SDS011;19126;47.472;7.850;2023-12-20T02:33:21;19.60;;;9.25;;
32760;SDS011;19126;47.472;7.850;2023-12-20T02:35:48;17.42;;;9.82;;
32760;SDS011;19126;47.472;7.850;2023-12-20T02:38:15;18.67;;;9.80;;
32760;SDS011;19126;47.472;7.850;2023-12-20T02:40:44;19.52;;;9.57;;
32760;SDS011;19126;47.472;7.850;2023-12-20T02:43:11;17.38;;;9.82;;
32760;SDS011;19126;47.472;7.850;2023-12-20T02:45:38;14.07;;;9.20;;
32760;SDS011;19126;47.472;7.850;2023-12-20T02:48:06;21.38;;;9.25;;
32760;SDS011;19126;47.472;7.850;2023-12-20T02:50:33;15.13;;;8.45;;
32760;SDS011;19126;47.472;7.850;2023-12-20T02:53:00;18.05;;;9.57;;
32760;SDS011;19126;47.472;7.850;2023-12-20T02:55:28;17.95;;;8.93;;
32760;SDS011;19126;47.472;7.850;2023-12-20T02:57:56;13.85;;;8.82;;
32760;SDS011;19126;47.472;7.850;2023-12-20T03:00:24;16.05;;;8.65;;
32760;SDS011;19126;47.472;7.850;2023-12-20T03:02:51;15.38;;;9.38;;
32760;SDS011;19126;47.472;7.850;2023-12-20T03:05:18;15.98;;;8.40;;
32760;SDS011;19126;47.472;7.850;2023-12-20T03:07:45;14.75;;;8.73;;
32760;SDS011;19126;47.472;7.850;2023-12-20T03:10:13;14.20;;;8.75;;
32760;SDS011;19126;47.472;7.850;2023-12-20T03:12:40;18.45;;;8.60;;
32760;SDS011;19126;47.472;7.850;2023-12-20T03:15:09;12.25;;;8.30;;
32760;SDS011;19126;47.472;7.850;2023-12-20T03:17:37;13.15;;;8.02;;
32760;SDS011;19126;47.472;7.850;2023-12-20T03:20:04;14.90;;;8.07;;
32760;SDS011;19126;47.472;7.850;2023-12-20T03:22:34;13.90;;;8.48;;
32760;SDS011;19126;47.472;7.850;2023-12-20T03:25:01;13.52;;;8.70;;
32760;SDS011;19126;47.472;7.850;2023-12-20T03:27:28;14.25;;;8.25;;
32760;SDS011;19126;47.472;7.850;2023-12-20T03:29:56;14.40;;;8.52;;
32760;SDS011;19126;47.472;7.850;2023-12-20T03:32:24;16.00;;;8.88;;
32760;SDS011;19126;47.472;7.850;2023-12-20T03:34:51;17.63;;;9.85;;
32760;SDS011;19126;47.472;7.850;2023-12-20T03:37:18;13.90;;;8.93;;
32760;SDS011;19126;47.472;7.850;2023-12-20T03:39:46;15.20;;;9.98;;
32760;SDS011;19126;47.472;7.850;2023-12-20T03:42:13;15.20;;;9.35;;
32760;SDS011;19126;47.472;7.850;2023-12-20T03:44:40;15.38;;;8.68;;
32760;SDS011;19126;47.472;7.850;2023-12-20T03:47:08;13.70;;;8.77;;
32760;SDS011;19126;47.472;7.850;2023-12-20T03:49:36;18.45;;;9.02;;
32760;SDS011;19126;47.472;7.850;2023-12-20T03:52:04;14.07;;;8.02;;
32760;SDS011;19126;47.472;7.850;2023-12-20T03:54:31;11.27;;;7.00;;
32760;SDS011;19126;47.472;7.850;2023-12-20T03:56:59;12.27;;;7.63;;
32760;SDS011;19126;47.472;7.850;2023-12-20T03:59:26;12.45;;;8.23;;
32760;SDS011;19126;47.472;7.850;2023-12-20T04:01:53;15.68;;;8.23;;
32760;SDS011;19126;47.472;7.850;2023-12-20T04:04:20;11.45;;;7.50;;
32760;SDS011;19126;47.472;7.850;2023-12-20T04:06:49;12.30;;;7.97;;
32760;SDS011;19126;47.472;7.850;2023-12-20T04:09:16;14.80;;;8.45;;
32760;SDS011;19126;47.472;7.850;2023-12-20T04:11:43;18.33;;;8.60;;
32760;SDS011;19126;47.472;7.850;2023-12-20T04:14:11;12.75;;;7.85;;
32760;SDS011;19126;47.472;7.850;2023-12-20T04:16:38;13.98;;;7.95;;
32760;SDS011;19126;47.472;7.850;2023-12-20T04:19:05;16.38;;;8.63;;
32760;SDS011;19126;47.472;7.850;2023-12-20T04:21:33;13.80;;;7.97;;
32760;SDS011;19126;47.472;7.850;2023-12-20T04:24:01;11.80;;;7.53;;
32760;SDS011;19126;47.472;7.850;2023-12-20T04:26:29;14.38;;;8.13;;
32760;SDS011;19126;47.472;7.850;2023-12-20T04:28:56;14.18;;;8.25;;
32760;SDS011;19126;47.472;7.850;2023-12-20T04:31:23;10.63;;;7.38;;
32760;SDS011;19126;47.472;7.850;2023-12-20T04:33:50;13.68;;;8.27;;
32760;SDS011;19126;47.472;7.850;2023-12-20T04:36:18;12.40;;;8.02;;
32760;SDS011;19126;47.472;7.850;2023-12-20T04:38:45;14.02;;;8.05;;
32760;SDS011;19126;47.472;7.850;2023-12-20T04:41:14;14.15;;;8.57;;
32760;SDS011;19126;47.472;7.850;2023-12-20T04:43:43;14.55;;;7.95;;
32760;SDS011;19126;47.472;7.850;2023-12-20T04:46:11;12.07;;;8.98;;
32760;SDS011;19126;47.472;7.850;2023-12-20T04:48:38;16.63;;;9.07;;
32760;SDS011;19126;47.472;7.850;2023-12-20T04:51:06;19.30;;;8.57;;
32760;SDS011;19126;47.472;7.850;2023-12-20T04:53:33;12.82;;;7.25;;
32760;SDS011;19126;47.472;7.850;2023-12-20T04:56:00;16.85;;;9.07;;
32760;SDS011;19126;47.472;7.850;2023-12-20T04:58:29;17.85;;;9.40;;
32760;SDS011;19126;47.472;7.850;2023-12-20T05:00:56;14.93;;;8.10;;
32760;SDS011;19126;47.472;7.850;2023-12-20T05:03:23;12.43;;;6.20;;
32760;SDS011;19126;47.472;7.850;2023-12-20T05:05:51;9.43;;;5.75;;
32760;SDS011;19126;47.472;7.850;2023-12-20T05:08:18;7.72;;;4.68;;
32760;SDS011;19126;47.472;7.850;2023-12-20T05:10:45;8.85;;;5.07;;
32760;SDS011;19126;47.472;7.850;2023-12-20T05:13:12;12.95;;;7.53;;
32760;SDS011;19126;47.472;7.850;2023-12-20T05:15:41;26.67;;;13.93;;
32760;SDS011;19126;47.472;7.850;2023-12-20T05:18:08;22.80;;;12.32;;
32760;SDS011;19126;47.472;7.850;2023-12-20T05:20:35;27.58;;;12.82;;
32760;SDS011;19126;47.472;7.850;2023-12-20T05:23:03;19.08;;;9.88;;
32760;SDS011;19126;47.472;7.850;2023-12-20T05:25:30;10.43;;;6.18;;
32760;SDS011;19126;47.472;7.850;2023-12-20T05:27:57;43.67;;;21.95;;
32760;SDS011;19126;47.472;7.850;2023-12-20T05:30:24;44.53;;;23.13;;
32760;SDS011;19126;47.472;7.850;2023-12-20T05:32:53;37.88;;;21.63;;
32760;SDS011;19126;47.472;7.850;2023-12-20T05:35:21;32.58;;;19.55;;
32760;SDS011;19126;47.472;7.850;2023-12-20T05:37:48;39.08;;;20.45;;
32760;SDS011;19126;47.472;7.850;2023-12-20T05:40:15;31.80;;;19.50;;
32760;SDS011;19126;47.472;7.850;2023-12-20T05:42:43;27.65;;;15.35;;
32760;SDS011;19126;47.472;7.850;2023-12-20T05:45:10;17.92;;;11.43;;
32760;SDS011;19126;47.472;7.850;2023-12-20T05:47:37;17.95;;;9.93;;
32760;SDS011;19126;47.472;7.850;2023-12-20T05:50:06;13.20;;;7.13;;
32760;SDS011;19126;47.472;7.850;2023-12-20T05:52:34;10.00;;;6.10;;
32760;SDS011;19126;47.472;7.850;2023-12-20T05:55:01;8.77;;;6.05;;
32760;SDS011;19126;47.472;7.850;2023-12-20T05:57:29;11.45;;;6.95;;
32760;SDS011;19126;47.472;7.850;2023-12-20T05:59:57;8.88;;;5.97;;
32760;SDS011;19126;47.472;7.850;2023-12-20T06:02:24;9.77;;;6.50;;
32760;SDS011;19126;47.472;7.850;2023-12-20T06:04:52;12.25;;;9.10;;
32760;SDS011;19126;47.472;7.850;2023-12-20T06:07:21;13.85;;;8.05;;
32760;SDS011;19126;47.472;7.850;2023-12-20T06:09:48;12.93;;;8.52;;
32760;SDS011;19126;47.472;7.850;2023-12-20T06:12:16;11.23;;;7.10;;
32760;SDS011;19126;47.472;7.850;2023-12-20T06:14:43;11.35;;;6.88;;
32760;SDS011;19126;47.472;7.850;2023-12-20T06:17:10;10.35;;;6.18;;
32760;SDS011;19126;47.472;7.850;2023-12-20T06:19:37;13.23;;;6.38;;
32760;SDS011;19126;47.472;7.850;2023-12-20T06:22:05;11.77;;;6.53;;
32760;SDS011;19126;47.472;7.850;2023-12-20T06:24:33;11.45;;;6.70;;
32760;SDS011;19126;47.472;7.850;2023-12-20T06:27:01;10.10;;;3.97;;
32760;SDS011;19126;47.472;7.850;2023-12-20T06:29:28;6.43;;;4.30;;
32760;SDS011;19126;47.472;7.850;2023-12-20T06:31:56;5.80;;;3.45;;
32760;SDS011;19126;47.472;7.850;2023-12-20T06:34:23;4.68;;;2.95;;
32760;SDS011;19126;47.472;7.850;2023-12-20T06:36:50;2.67;;;2.25;;
32760;SDS011;19126;47.472;7.850;2023-12-20T06:39:17;6.03;;;2.30;;
32760;SDS011;19126;47.472;7.850;2023-12-20T06:41:46;4.35;;;1.70;;
32760;SDS011;19126;47.472;7.850;2023-12-20T06:44:13;1.55;;;1.38;;
32760;SDS011;19126;47.472;7.850;2023-12-20T06:46:40;3.20;;;1.70;;
32760;SDS011;19126;47.472;7.850;2023-12-20T06:49:08;3.13;;;1.30;;
32760;SDS011;19126;47.472;7.850;2023-12-20T06:51:35;1.48;;;1.38;;
32760;SDS011;19126;47.472;7.850;2023-12-20T06:54:03;1.30;;;1.20;;
32760;SDS011;19126;47.472;7.850;2023-12-20T06:56:30;1.60;;;1.27;;
32760;SDS011;19126;47.472;7.850;2023-12-20T06:58:59;3.63;;;1.52;;
32760;SDS011;19126;47.472;7.850;2023-12-20T07:01:27;2.42;;;1.30;;
32760;SDS011;19126;47.472;7.850;2023-12-20T07:03:54;2.30;;;1.60;;
32760;SDS011;19126;47.472;7.850;2023-12-20T07:06:21;2.70;;;1.45;;
32760;SDS011;19126;47.472;7.850;2023-12-20T07:08:50;1.95;;;1.30;;
32760;SDS011;19126;47.472;7.850;2023-12-20T07:11:18;2.67;;;1.73;;
32760;SDS011;19126;47.472;7.850;2023-12-20T07:13:46;2.10;;;1.85;;
32760;SDS011;19126;47.472;7.850;2023-12-20T07:16:15;2.72;;;1.50;;
32760;SDS011;19126;47.472;7.850;2023-12-20T07:18:43;1.77;;;1.30;;
32760;SDS011;19126;47.472;7.850;2023-12-20T07:21:10;1.35;;;1.15;;
32760;SDS011;19126;47.472;7.850;2023-12-20T07:23:37;4.70;;;1.38;;
32760;SDS011;19126;47.472;7.850;2023-12-20T07:26:05;1.77;;;1.33;;
32760;SDS011;19126;47.472;7.850;2023-12-20T07:28:32;1.20;;;1.10;;
32760;SDS011;19126;47.472;7.850;2023-12-20T07:31:00;1.58;;;1.17;;
32760;SDS011;19126;47.472;7.850;2023-12-20T07:33:29;2.70;;;1.20;;
32760;SDS011;19126;47.472;7.850;2023-12-20T07:35:56;2.67;;;1.10;;
32760;SDS011;19126;47.472;7.850;2023-12-20T07:38:23;3.67;;;2.45;;
32760;SDS011;19126;47.472;7.850;2023-12-20T07:40:51;1.30;;;1.13;;
32760;SDS011;19126;47.472;7.850;2023-12-20T07:43:18;1.30;;;1.20;;
32760;SDS011;19126;47.472;7.850;2023-12-20T07:45:45;2.13;;;1.08;;
32760;SDS011;19126;47.472;7.850;2023-12-20T07:48:12;2.03;;;1.17;;
32760;SDS011;19126;47.472;7.850;2023-12-20T07:50:41;1.35;;;1.25;;
32760;SDS011;19126;47.472;7.850;2023-12-20T07:53:08;1.50;;;1.20;;
32760;SDS011;19126;47.472;7.850;2023-12-20T07:55:35;1.77;;;1.20;;
32760;SDS011;19126;47.472;7.850;2023-12-20T07:58:03;4.15;;;1.13;;
32760;SDS011;19126;47.472;7.850;2023-12-20T08:00:30;3.40;;;1.70;;
32760;SDS011;19126;47.472;7.850;2023-12-20T08:02:58;2.67;;;1.38;;
32760;SDS011;19126;47.472;7.850;2023-12-20T08:05:28;1.50;;;1.10;;
32760;SDS011;19126;47.472;7.850;2023-12-20T08:07:57;2.08;;;1.20;;
32760;SDS011;19126;47.472;7.850;2023-12-20T08:10:24;4.45;;;1.85;;
32760;SDS011;19126;47.472;7.850;2023-12-20T08:12:54;1.08;;;0.85;;
32760;SDS011;19126;47.472;7.850;2023-12-20T08:15:21;9.45;;;2.65;;
32760;SDS011;19126;47.472;7.850;2023-12-20T08:17:49;1.60;;;1.40;;
32760;SDS011;19126;47.472;7.850;2023-12-20T08:20:17;2.92;;;1.50;;
32760;SDS011;19126;47.472;7.850;2023-12-20T08:22:44;1.30;;;1.02;;
32760;SDS011;19126;47.472;7.850;2023-12-20T08:25:12;1.98;;;1.25;;
32760;SDS011;19126;47.472;7.850;2023-12-20T08:27:40;3.47;;;2.15;;
32760;SDS011;19126;47.472;7.850;2023-12-20T08:30:08;1.00;;;1.00;;
32760;SDS011;19126;47.472;7.850;2023-12-20T08:32:40;3.67;;;1.52;;
32760;SDS011;19126;47.472;7.850;2023-12-20T08:35:08;0.80;;;0.80;;
32760;SDS011;19126;47.472;7.850;2023-12-20T08:37:35;1.73;;;1.02;;
32760;SDS011;19126;47.472;7.850;2023-12-20T08:40:03;2.00;;;1.48;;
32760;SDS011;19126;47.472;7.850;2023-12-20T08:42:33;1.25;;;1.15;;
32760;SDS011;19126;47.472;7.850;2023-12-20T08:45:01;2.17;;;1.15;;
32760;SDS011;19126;47.472;7.850;2023-12-20T08:47:29;4.05;;;1.30;;
32760;SDS011;19126;47.472;7.850;2023-12-20T08:49:56;1.73;;;1.00;;
32760;SDS011;19126;47.472;7.850;2023-12-20T08:52:25;2.00;;;1.40;;
32760;SDS011;19126;47.472;7.850;2023-12-20T08:54:53;1.75;;;0.93;;
32760;SDS011;19126;47.472;7.850;2023-12-20T08:57:20;2.05;;;1.27;;
32760;SDS011;19126;47.472;7.850;2023-12-20T08:59:50;1.00;;;1.00;;
32760;SDS011;19126;47.472;7.850;2023-12-20T09:02:17;1.35;;;1.25;;
32760;SDS011;19126;47.472;7.850;2023-12-20T09:04:45;2.13;;;1.05;;
32760;SDS011;19126;47.472;7.850;2023-12-20T09:07:21;3.28;;;1.30;;
32760;SDS011;19126;47.472;7.850;2023-12-20T09:09:49;1.27;;;1.00;;
32760;SDS011;19126;47.472;7.850;2023-12-20T09:12:17;4.70;;;1.10;;
32760;SDS011;19126;47.472;7.850;2023-12-20T09:14:45;1.00;;;1.00;;
32760;SDS011;19126;47.472;7.850;2023-12-20T09:17:14;1.67;;;1.27;;
32760;SDS011;19126;47.472;7.850;2023-12-20T09:19:42;1.10;;;1.00;;
32760;SDS011;19126;47.472;7.850;2023-12-20T09:22:10;1.25;;;1.15;;
32760;SDS011;19126;47.472;7.850;2023-12-20T09:24:37;1.73;;;1.35;;
32760;SDS011;19126;47.472;7.850;2023-12-20T09:27:05;6.93;;;1.17;;
32760;SDS011;19126;47.472;7.850;2023-12-20T09:29:32;3.08;;;1.30;;
32760;SDS011;19126;47.472;7.850;2023-12-20T09:32:00;1.38;;;1.20;;
32760;SDS011;19126;47.472;7.850;2023-12-20T09:34:29;1.83;;;1.67;;
32760;SDS011;19126;47.472;7.850;2023-12-20T09:36:56;3.30;;;1.65;;
32760;SDS011;19126;47.472;7.850;2023-12-20T09:39:23;2.42;;;1.20;;
32760;SDS011;19126;47.472;7.850;2023-12-20T09:41:53;2.30;;;1.60;;
32760;SDS011;19126;47.472;7.850;2023-12-20T09:44:27;1.70;;;1.60;;
32760;SDS011;19126;47.472;7.850;2023-12-20T09:46:54;3.05;;;1.50;;
32760;SDS011;19126;47.472;7.850;2023-12-20T09:49:22;2.00;;;1.80;;
32760;SDS011;19126;47.472;7.850;2023-12-20T09:51:53;1.63;;;1.52;;
32760;SDS011;19126;47.472;7.850;2023-12-20T09:54:22;1.90;;;1.70;;
32760;SDS011;19126;47.472;7.850;2023-12-20T09:56:50;1.65;;;1.40;;
32760;SDS011;19126;47.472;7.850;2023-12-20T09:59:17;1.52;;;1.42;;
32760;SDS011;19126;47.472;7.850;2023-12-20T10:01:44;2.00;;;1.83;;
32760;SDS011;19126;47.472;7.850;2023-12-20T10:04:12;3.45;;;1.75;;
32760;SDS011;19126;47.472;7.850;2023-12-20T10:06:39;1.83;;;1.67;;
32760;SDS011;19126;47.472;7.850;2023-12-20T10:09:09;2.75;;;1.48;;
32760;SDS011;19126;47.472;7.850;2023-12-20T10:11:37;1.88;;;1.63;;
32760;SDS011;19126;47.472;7.850;2023-12-20T10:14:06;6.15;;;1.63;;
32760;SDS011;19126;47.472;7.850;2023-12-20T10:16:34;5.03;;;1.90;;
32760;SDS011;19126;47.472;7.850;2023-12-20T10:19:01;2.72;;;1.90;;
32760;SDS011;19126;47.472;7.850;2023-12-20T10:21:29;3.05;;;2.10;;
32760;SDS011;19126;47.472;7.850;2023-12-20T10:23:59;3.03;;;2.03;;
32760;SDS011;19126;47.472;7.850;2023-12-20T10:26:29;16.95;;;5.03;;
32760;SDS011;19126;47.472;7.850;2023-12-20T10:28:56;9.15;;;4.38;;
32760;SDS011;19126;47.472;7.850;2023-12-20T10:31:29;3.65;;;2.58;;
32760;SDS011;19126;47.472;7.850;2023-12-20T10:33:57;5.35;;;2.47;;
32760;SDS011;19126;47.472;7.850;2023-12-20T10:36:26;8.05;;;2.78;;
32760;SDS011;19126;47.472;7.850;2023-12-20T10:38:56;3.88;;;3.47;;
32760;SDS011;19126;47.472;7.850;2023-12-20T10:41:25;6.65;;;3.25;;
32760;SDS011;19126;47.472;7.850;2023-12-20T10:43:56;3.80;;;3.40;;
32760;SDS011;19126;47.472;7.850;2023-12-20T10:46:27;6.15;;;3.15;;
32760;SDS011;19126;47.472;7.850;2023-12-20T10:48:57;3.50;;;2.30;;
32760;SDS011;19126;47.472;7.850;2023-12-20T10:51:25;5.00;;;3.22;;
32760;SDS011;19126;47.472;7.850;2023-12-20T10:53:54;3.67;;;3.05;;
32760;SDS011;19126;47.472;7.850;2023-12-20T10:56:22;5.57;;;3.25;;
32760;SDS011;19126;47.472;7.850;2023-12-20T10:58:51;3.60;;;2.78;;
32760;SDS011;19126;47.472;7.850;2023-12-20T11:01:20;7.40;;;3.03;;
32760;SDS011;19126;47.472;7.850;2023-12-20T11:03:48;5.43;;;3.22;;
32760;SDS011;19126;47.472;7.850;2023-12-20T11:06:29;5.45;;;2.85;;
32760;SDS011;19126;47.472;7.850;2023-12-20T11:09:08;3.70;;;3.00;;
32760;SDS011;19126;47.472;7.850;2023-12-20T11:11:50;3.85;;;3.17;;
32760;SDS011;19126;47.472;7.850;2023-12-20T11:14:31;4.30;;;2.90;;
32760;SDS011;19126;47.472;7.850;2023-12-20T11:17:08;6.15;;;3.53;;
32760;SDS011;19126;47.472;7.850;2023-12-20T11:19:42;3.80;;;3.40;;
32760;SDS011;19126;47.472;7.850;2023-12-20T11:22:30;10.18;;;5.45;;
32760;SDS011;19126;47.472;7.850;2023-12-20T11:24:59;6.82;;;3.15;;
32760;SDS011;19126;47.472;7.850;2023-12-20T11:27:33;7.03;;;2.95;;
32760;SDS011;19126;47.472;7.850;2023-12-20T11:30:03;7.22;;;3.17;;
32760;SDS011;19126;47.472;7.850;2023-12-20T11:32:33;4.50;;;2.90;;
32760;SDS011;19126;47.472;7.850;2023-12-20T11:35:16;4.50;;;3.30;;
32760;SDS011;19126;47.472;7.850;2023-12-20T11:37:45;4.28;;;3.05;;
32760;SDS011;19126;47.472;7.850;2023-12-20T11:40:14;3.97;;;3.00;;
32760;SDS011;19126;47.472;7.850;2023-12-20T11:42:43;5.78;;;2.70;;
32760;SDS011;19126;47.472;7.850;2023-12-20T11:45:15;7.55;;;2.95;;
32760;SDS011;19126;47.472;7.850;2023-12-20T11:47:47;3.38;;;2.92;;
32760;SDS011;19126;47.472;7.850;2023-12-20T11:50:16;6.65;;;2.83;;
32760;SDS011;19126;47.472;7.850;2023-12-20T11:52:43;7.78;;;2.88;;
32760;SDS011;19126;47.472;7.850;2023-12-20T11:55:11;5.93;;;2.58;;
32760;SDS011;19126;47.472;7.850;2023-12-20T11:57:39;4.80;;;2.70;;
32760;SDS011;19126;47.472;7.850;2023-12-20T12:00:06;7.15;;;2.45;;
32760;SDS011;19126;47.472;7.850;2023-12-20T12:02:37;5.88;;;2.80;;
32760;SDS011;19126;47.472;7.850;2023-12-20T12:05:05;7.68;;;2.50;;
32760;SDS011;19126;47.472;7.850;2023-12-20T12:07:33;8.27;;;3.03;;
32760;SDS011;19126;47.472;7.850;2023-12-20T12:10:01;8.57;;;3.20;;
32760;SDS011;19126;47.472;7.850;2023-12-20T12:12:29;6.10;;;2.88;;
32760;SDS011;19126;47.472;7.850;2023-12-20T12:14:57;9.35;;;2.78;;
32760;SDS011;19126;47.472;7.850;2023-12-20T12:17:25;3.67;;;2.78;;
32760;SDS011;19126;47.472;7.850;2023-12-20T12:20:01;6.15;;;3.03;;
32760;SDS011;19126;47.472;7.850;2023-12-20T12:22:30;6.00;;;2.80;;
32760;SDS011;19126;47.472;7.850;2023-12-20T12:24:58;7.85;;;3.38;;
32760;SDS011;19126;47.472;7.850;2023-12-20T12:27:36;6.22;;;2.78;;
32760;SDS011;19126;47.472;7.850;2023-12-20T12:30:06;8.52;;;2.67;;
32760;SDS011;19126;47.472;7.850;2023-12-20T12:32:35;9.90;;;3.10;;
32760;SDS011;19126;47.472;7.850;2023-12-20T12:35:08;6.25;;;3.28;;
32760;SDS011;19126;47.472;7.850;2023-12-20T12:37:37;8.50;;;3.08;;
32760;SDS011;19126;47.472;7.850;2023-12-20T12:40:06;6.47;;;3.28;;
32760;SDS011;19126;47.472;7.850;2023-12-20T12:42:36;6.78;;;2.60;;
32760;SDS011;19126;47.472;7.850;2023-12-20T12:45:04;11.13;;;2.90;;
32760;SDS011;19126;47.472;7.850;2023-12-20T12:47:33;6.40;;;2.40;;
32760;SDS011;19126;47.472;7.850;2023-12-20T12:50:01;9.82;;;2.50;;
32760;SDS011;19126;47.472;7.850;2023-12-20T12:52:30;4.97;;;2.03;;
32760;SDS011;19126;47.472;7.850;2023-12-20T12:54:58;7.97;;;2.50;;
32760;SDS011;19126;47.472;7.850;2023-12-20T12:57:25;9.18;;;2.25;;
32760;SDS011;19126;47.472;7.850;2023-12-20T12:59:53;9.98;;;3.70;;
32760;SDS011;19126;47.472;7.850;2023-12-20T13:02:20;7.43;;;2.88;;
32760;SDS011;19126;47.472;7.850;2023-12-20T13:04:47;9.30;;;2.72;;
32760;SDS011;19126;47.472;7.850;2023-12-20T13:07:15;8.07;;;2.63;;
32760;SDS011;19126;47.472;7.850;2023-12-20T13:09:43;6.72;;;2.63;;
32760;SDS011;19126;47.472;7.850;2023-12-20T13:12:10;8.13;;;2.35;;
32760;SDS011;19126;47.472;7.850;2023-12-20T13:14:38;10.48;;;2.22;;
32760;SDS011;19126;47.472;7.850;2023-12-20T13:17:06;11.25;;;2.22;;
32760;SDS011;19126;47.472;7.850;2023-12-20T13:19:34;9.43;;;3.92;;
32760;SDS011;19126;47.472;7.850;2023-12-20T13:22:01;16.30;;;2.38;;
32760;SDS011;19126;47.472;7.850;2023-12-20T13:24:28;7.00;;;2.00;;
32760;SDS011;19126;47.472;7.850;2023-12-20T13:26:59;9.07;;;2.78;;
32760;SDS011;19126;47.472;7.850;2023-12-20T13:29:26;6.75;;;2.35;;
32760;SDS011;19126;47.472;7.850;2023-12-20T13:31:53;9.82;;;2.22;;
32760;SDS011;19126;47.472;7.850;2023-12-20T13:34:21;12.77;;;2.42;;
32760;SDS011;19126;47.472;7.850;2023-12-20T13:36:48;6.43;;;2.10;;
32760;SDS011;19126;47.472;7.850;2023-12-20T13:39:16;14.63;;;2.25;;
32760;SDS011;19126;47.472;7.850;2023-12-20T13:41:43;8.50;;;2.45;;
32760;SDS011;19126;47.472;7.850;2023-12-20T13:44:12;12.30;;;2.63;;
32760;SDS011;19126;47.472;7.850;2023-12-20T13:46:40;10.32;;;2.50;;
32760;SDS011;19126;47.472;7.850;2023-12-20T13:49:08;10.70;;;2.80;;
32760;SDS011;19126;47.472;7.850;2023-12-20T13:51:35;9.77;;;2.10;;
32760;SDS011;19126;47.472;7.850;2023-12-20T13:54:03;12.68;;;2.30;;
32760;SDS011;19126;47.472;7.850;2023-12-20T13:56:31;10.85;;;2.20;;
32760;SDS011;19126;47.472;7.850;2023-12-20T13:58:59;9.27;;;2.55;;
32760;SDS011;19126;47.472;7.850;2023-12-20T14:01:28;7.63;;;1.85;;
32760;SDS011;19126;47.472;7.850;2023-12-20T14:03:55;11.57;;;2.20;;
32760;SDS011;19126;47.472;7.850;2023-12-20T14:06:23;11.30;;;1.90;;
32760;SDS011;19126;47.472;7.850;2023-12-20T14:08:50;6.05;;;1.90;;
32760;SDS011;19126;47.472;7.850;2023-12-20T14:11:17;8.00;;;1.95;;
32760;SDS011;19126;47.472;7.850;2023-12-20T14:13:45;13.38;;;2.20;;
32760;SDS011;19126;47.472;7.850;2023-12-20T14:16:12;9.95;;;2.58;;
32760;SDS011;19126;47.472;7.850;2023-12-20T14:18:42;10.13;;;1.55;;
32760;SDS011;19126;47.472;7.850;2023-12-20T14:21:09;6.47;;;1.98;;
32760;SDS011;19126;47.472;7.850;2023-12-20T14:23:37;12.93;;;1.77;;
32760;SDS011;19126;47.472;7.850;2023-12-20T14:26:04;8.60;;;2.10;;
32760;SDS011;19126;47.472;7.850;2023-12-20T14:28:31;8.23;;;2.13;;
32760;SDS011;19126;47.472;7.850;2023-12-20T14:30:59;9.45;;;2.05;;
32760;SDS011;19126;47.472;7.850;2023-12-20T14:33:26;16.42;;;3.45;;
32760;SDS011;19126;47.472;7.850;2023-12-20T14:35:55;14.30;;;3.40;;
32760;SDS011;19126;47.472;7.850;2023-12-20T14:38:22;7.65;;;2.15;;
32760;SDS011;19126;47.472;7.850;2023-12-20T14:40:50;11.18;;;2.28;;
32760;SDS011;19126;47.472;7.850;2023-12-20T14:43:19;8.63;;;2.50;;
32760;SDS011;19126;47.472;7.850;2023-12-20T14:45:47;11.90;;;2.33;;